createdAt,value
2017-04-29T00:00:28.666Z,13.98
2017-04-29T00:02:55.332Z,13.73
2017-04-29T00:05:21.999Z,14.35
2017-04-29T00:07:48.666Z,13.72
2017-04-29T00:10:15.331Z,13.68
2017-04-29T00:12:41.999Z,14.83
2017-04-29T00:15:08.677Z,15.28
2017-04-29T00:17:35.339Z,14.03
2017-04-29T00:20:02.013Z,14.57
2017-04-29T00:22:28.683Z,16.92
2017-04-29T00:24:55.355Z,16.02
2017-04-29T00:27:22.022Z,15.90
2017-04-29T00:29:48.691Z,15.35
2017-04-29T00:32:15.362Z,14.57
2017-04-29T00:34:42.035Z,14.65
2017-04-29T00:37:08.698Z,17.33
2017-04-29T00:39:35.368Z,16.10
2017-04-29T00:42:02.039Z,15.10
2017-04-29T00:44:28.708Z,16.60
2017-04-29T00:46:55.379Z,16.93
2017-04-29T00:49:22.048Z,15.15
2017-04-29T00:51:48.724Z,17.95
2017-04-29T00:54:15.390Z,18.65
2017-04-29T00:56:42.059Z,17.17
2017-04-29T00:59:08.726Z,17.85
2017-04-29T01:01:35.395Z,17.45
2017-04-29T01:04:02.068Z,18.55
2017-04-29T01:06:28.735Z,17.43
2017-04-29T01:08:55.403Z,17.50
2017-04-29T01:11:22.078Z,17.68
2017-04-29T01:13:48.755Z,16.40
2017-04-29T01:16:15.418Z,15.72
2017-04-29T01:18:42.087Z,17.88
2017-04-29T01:21:08.762Z,14.58
2017-04-29T01:23:35.439Z,15.58
2017-04-29T01:26:02.143Z,12.03
2017-04-29T01:28:28.811Z,11.22
2017-04-29T01:30:55.480Z,11.08
2017-04-29T01:33:22.146Z,9.33
2017-04-29T01:35:48.806Z,9.65
2017-04-29T01:38:15.471Z,9.52
2017-04-29T01:40:42.145Z,8.38
2017-04-29T01:43:08.810Z,8.38
2017-04-29T01:45:35.478Z,9.27
2017-04-29T01:48:02.139Z,9.12
2017-04-29T01:50:28.801Z,9.53
2017-04-29T01:52:55.487Z,7.65
2017-04-29T01:55:22.164Z,8.23
2017-04-29T01:57:48.831Z,8.60
2017-04-29T02:00:15.498Z,8.33
2017-04-29T02:02:42.159Z,8.47
2017-04-29T02:05:08.831Z,8.33
2017-04-29T02:07:35.497Z,7.85
2017-04-29T02:10:02.175Z,10.25
2017-04-29T02:12:28.839Z,9.35
2017-04-29T02:14:55.511Z,9.13
2017-04-29T02:17:22.166Z,8.15
2017-04-29T02:19:48.822Z,7.82
2017-04-29T02:22:15.491Z,10.05
2017-04-29T02:24:42.159Z,10.23
2017-04-29T02:27:08.814Z,8.57
2017-04-29T02:29:35.470Z,9.68
2017-04-29T02:32:02.135Z,9.27
2017-04-29T02:34:28.838Z,9.93
2017-04-29T02:36:55.502Z,9.77
2017-04-29T02:39:22.167Z,9.50
2017-04-29T02:41:48.834Z,9.47
2017-04-29T02:44:15.494Z,9.00
2017-04-29T02:46:42.163Z,8.15
2017-04-29T02:49:08.828Z,8.37
2017-04-29T02:51:35.493Z,8.20
2017-04-29T02:54:02.155Z,7.78
2017-04-29T02:56:28.819Z,8.70
2017-04-29T02:58:55.486Z,8.33
2017-04-29T03:01:22.138Z,8.18
2017-04-29T03:03:48.805Z,8.07
2017-04-29T03:06:15.511Z,8.55
2017-04-29T03:08:42.171Z,6.35
2017-04-29T03:11:08.843Z,8.05
2017-04-29T03:13:35.506Z,7.47
2017-04-29T03:16:02.162Z,6.20
2017-04-29T03:18:28.818Z,8.33
2017-04-29T03:20:55.470Z,8.42
2017-04-29T03:23:22.130Z,8.27
2017-04-29T03:25:48.789Z,7.18
2017-04-29T03:28:15.454Z,8.32
2017-04-29T03:30:42.119Z,7.87
2017-04-29T03:33:08.783Z,7.45
2017-04-29T03:35:35.447Z,8.23
2017-04-29T03:38:02.106Z,7.68
2017-04-29T03:40:28.768Z,8.97
2017-04-29T03:42:55.426Z,7.95
2017-04-29T03:45:22.083Z,8.38
2017-04-29T03:47:48.747Z,8.97
2017-04-29T03:50:15.415Z,8.62
2017-04-29T03:52:42.119Z,10.15
2017-04-29T03:55:08.787Z,9.73
2017-04-29T03:57:35.455Z,9.13
2017-04-29T04:00:02.114Z,9.52
2017-04-29T04:02:28.775Z,9.17
2017-04-29T04:04:55.467Z,9.10
2017-04-29T04:07:22.129Z,9.75
2017-04-29T04:09:48.803Z,10.07
2017-04-29T04:12:15.467Z,10.30
2017-04-29T04:14:42.175Z,9.45
2017-04-29T04:17:08.838Z,9.82
2017-04-29T04:19:35.504Z,9.23
2017-04-29T04:22:02.170Z,9.08
2017-04-29T04:24:28.848Z,10.00
2017-04-29T04:26:55.511Z,9.83
2017-04-29T04:29:22.179Z,9.57
2017-04-29T04:31:48.856Z,10.10
2017-04-29T04:34:15.529Z,9.15
2017-04-29T04:36:42.190Z,9.62
2017-04-29T04:39:08.862Z,8.47
2017-04-29T04:41:35.526Z,8.98
2017-04-29T04:44:02.191Z,8.68
2017-04-29T04:46:28.850Z,8.77
2017-04-29T04:48:55.520Z,8.98
2017-04-29T04:51:22.191Z,9.35
2017-04-29T04:53:48.857Z,9.18
2017-04-29T04:56:15.526Z,8.70
2017-04-29T04:58:42.191Z,8.28
2017-04-29T05:01:08.856Z,9.53
2017-04-29T05:03:35.520Z,8.88
2017-04-29T05:06:02.185Z,8.80
2017-04-29T05:08:28.842Z,8.48
2017-04-29T05:10:55.502Z,8.22
2017-04-29T05:13:22.163Z,8.98
2017-04-29T05:15:48.826Z,8.15
2017-04-29T05:18:15.483Z,8.25
2017-04-29T05:20:42.146Z,8.23
2017-04-29T05:23:08.848Z,7.30
2017-04-29T05:25:35.502Z,7.75
2017-04-29T05:28:02.158Z,7.50
2017-04-29T05:30:28.825Z,8.52
2017-04-29T05:32:55.491Z,8.63
2017-04-29T05:35:22.162Z,6.92
2017-04-29T05:37:48.823Z,8.22
2017-04-29T05:40:15.481Z,7.48
2017-04-29T05:42:42.143Z,7.12
2017-04-29T05:45:08.803Z,7.97
2017-04-29T05:47:35.472Z,8.68
2017-04-29T05:50:02.133Z,7.13
2017-04-29T05:52:28.786Z,6.80
2017-04-29T05:54:55.446Z,7.02
2017-04-29T05:57:22.107Z,6.67
2017-04-29T05:59:48.771Z,6.40
2017-04-29T06:02:15.437Z,7.07
2017-04-29T06:04:43.809Z,7.38
2017-04-29T06:07:10.524Z,7.02
2017-04-29T06:09:37.279Z,6.82
2017-04-29T06:12:03.940Z,6.74
2017-04-29T06:14:30.605Z,7.18
2017-04-29T06:16:57.267Z,7.36
2017-04-29T06:19:23.923Z,6.46
2017-04-29T06:21:50.587Z,6.66
2017-04-29T06:24:17.246Z,6.34
2017-04-29T06:26:43.910Z,5.86
2017-04-29T06:29:10.567Z,6.10
2017-04-29T06:31:37.229Z,6.50
2017-04-29T06:34:03.900Z,6.70
2017-04-29T06:36:30.562Z,5.98
2017-04-29T06:38:57.220Z,5.88
2017-04-29T06:41:23.875Z,6.26
2017-04-29T06:43:50.530Z,5.58
2017-04-29T06:46:17.228Z,6.24
2017-04-29T06:48:43.895Z,5.44
2017-04-29T06:51:10.611Z,5.58
2017-04-29T06:53:37.275Z,5.42
2017-04-29T06:56:03.930Z,5.60
2017-04-29T06:58:30.591Z,4.98
2017-04-29T07:00:57.258Z,5.26
2017-04-29T07:03:23.919Z,5.58
2017-04-29T07:05:50.656Z,9.42
2017-04-29T07:08:17.316Z,6.82
2017-04-29T07:10:43.972Z,3.78
2017-04-29T07:13:10.639Z,4.30
2017-04-29T07:15:37.312Z,3.92
2017-04-29T07:18:03.973Z,3.82
2017-04-29T07:20:30.631Z,4.00
2017-04-29T07:22:57.298Z,3.83
2017-04-29T07:25:23.959Z,4.10
2017-04-29T07:27:50.623Z,3.23
2017-04-29T07:30:17.290Z,3.78
2017-04-29T07:32:43.956Z,3.92
2017-04-29T07:35:10.614Z,4.08
2017-04-29T07:37:37.271Z,3.80
2017-04-29T07:40:03.931Z,3.54
2017-04-29T07:42:30.598Z,4.96
2017-04-29T07:44:57.259Z,4.32
2017-04-29T07:47:23.915Z,4.42
2017-04-29T07:49:50.578Z,3.54
2017-04-29T07:52:17.239Z,3.20
2017-04-29T07:54:43.891Z,3.50
2017-04-29T07:57:10.548Z,3.56
2017-04-29T07:59:37.210Z,3.58
2017-04-29T08:02:03.863Z,3.52
2017-04-29T08:04:30.522Z,3.50
2017-04-29T08:06:57.183Z,3.32
2017-04-29T08:09:23.845Z,3.04
2017-04-29T08:11:50.502Z,3.32
2017-04-29T08:14:17.159Z,3.90
2017-04-29T08:16:43.822Z,3.42
2017-04-29T08:19:10.483Z,3.44
2017-04-29T08:21:37.140Z,3.64
2017-04-29T08:24:03.799Z,3.60
2017-04-29T08:26:30.459Z,3.30
2017-04-29T08:28:57.116Z,3.42
2017-04-29T08:31:23.770Z,3.06
2017-04-29T08:33:50.427Z,2.90
2017-04-29T08:36:17.078Z,2.80
2017-04-29T08:38:43.991Z,3.50
2017-04-29T08:41:10.659Z,3.04
2017-04-29T08:43:37.322Z,3.26
2017-04-29T08:46:03.974Z,3.54
2017-04-29T08:48:30.631Z,3.28
2017-04-29T08:50:57.300Z,3.12
2017-04-29T08:53:23.968Z,3.38
2017-04-29T08:55:50.627Z,3.42
2017-04-29T08:58:17.295Z,2.64
2017-04-29T09:00:43.954Z,3.10
2017-04-29T09:03:10.619Z,3.30
2017-04-29T09:05:37.282Z,3.22
2017-04-29T09:08:03.948Z,3.70
2017-04-29T09:10:30.610Z,3.35
2017-04-29T09:12:57.267Z,3.67
2017-04-29T09:15:23.922Z,4.18
2017-04-29T09:17:50.578Z,3.52
2017-04-29T09:20:17.230Z,2.88
2017-04-29T09:22:43.894Z,3.95
2017-04-29T09:25:10.592Z,3.53
2017-04-29T09:27:37.249Z,3.02
2017-04-29T09:30:03.906Z,3.10
2017-04-29T09:32:30.590Z,3.45
2017-04-29T09:34:57.249Z,3.10
2017-04-29T09:37:23.902Z,2.92
2017-04-29T09:39:50.582Z,3.40
2017-04-29T09:42:17.247Z,2.93
2017-04-29T09:44:43.911Z,3.53
2017-04-29T09:47:10.570Z,3.40
2017-04-29T09:49:37.230Z,4.60
2017-04-29T09:52:03.896Z,3.03
2017-04-29T09:54:30.563Z,3.25
2017-04-29T09:56:57.235Z,3.08
2017-04-29T09:59:23.891Z,3.17
2017-04-29T10:01:50.546Z,3.52
2017-04-29T10:04:17.208Z,3.20
2017-04-29T10:06:43.882Z,15.52
2017-04-29T10:09:10.539Z,2.62
2017-04-29T10:11:37.203Z,3.14
2017-04-29T10:14:03.862Z,3.80
2017-04-29T10:16:30.520Z,3.10
2017-04-29T10:18:57.175Z,3.02
2017-04-29T10:21:23.834Z,3.28
2017-04-29T10:23:50.500Z,2.80
2017-04-29T10:26:17.195Z,2.76
2017-04-29T10:28:43.851Z,2.56
2017-04-29T10:31:10.510Z,2.50
2017-04-29T10:33:37.170Z,2.80
2017-04-29T10:36:03.836Z,2.80
2017-04-29T10:38:30.510Z,2.98
2017-04-29T10:40:57.166Z,2.60
2017-04-29T10:43:23.827Z,2.56
2017-04-29T10:45:50.494Z,2.52
2017-04-29T10:48:17.156Z,3.35
2017-04-29T10:50:43.810Z,2.65
2017-04-29T10:53:10.496Z,2.87
2017-04-29T10:55:37.158Z,2.97
2017-04-29T10:58:03.824Z,2.83
2017-04-29T11:00:30.486Z,2.80
2017-04-29T11:02:57.149Z,2.77
2017-04-29T11:05:23.802Z,3.02
2017-04-29T11:07:50.469Z,2.53
2017-04-29T11:10:17.124Z,1.92
2017-04-29T11:12:43.783Z,2.05
2017-04-29T11:15:10.442Z,2.87
2017-04-29T11:17:37.106Z,2.60
2017-04-29T11:20:03.763Z,2.48
2017-04-29T11:22:30.431Z,2.25
2017-04-29T11:24:57.091Z,2.98
2017-04-29T11:27:23.764Z,2.67
2017-04-29T11:29:50.424Z,2.80
2017-04-29T11:32:17.087Z,4.30
2017-04-29T11:34:43.756Z,7.47
2017-04-29T11:37:10.417Z,3.48
2017-04-29T11:39:37.074Z,3.52
2017-04-29T11:42:03.780Z,2.90
2017-04-29T11:44:32.011Z,2.60
2017-04-29T11:46:58.723Z,3.12
2017-04-29T11:49:25.459Z,2.93
2017-04-29T11:51:52.616Z,7.03
2017-04-29T11:54:19.339Z,3.62
2017-04-29T11:56:46.011Z,11.42
2017-04-29T11:59:12.672Z,3.18
2017-04-29T12:01:39.330Z,2.72
2017-04-29T12:04:05.994Z,2.90
2017-04-29T12:06:32.659Z,2.98
2017-04-29T12:08:59.324Z,3.00
2017-04-29T12:11:25.978Z,2.80
2017-04-29T12:13:52.641Z,2.70
2017-04-29T12:16:19.350Z,2.22
2017-04-29T12:18:46.031Z,2.50
2017-04-29T12:21:12.773Z,2.55
2017-04-29T12:26:10.610Z,3.45
2017-04-29T12:28:37.268Z,2.60
2017-04-29T12:31:03.931Z,2.90
2017-04-29T12:33:30.593Z,2.70
2017-04-29T12:35:57.246Z,2.83
2017-04-29T12:38:23.903Z,8.33
2017-04-29T12:40:50.574Z,19.50
2017-04-29T12:43:17.238Z,10.67
2017-04-29T12:45:43.911Z,7.28
2017-04-29T12:48:10.574Z,6.87
2017-04-29T12:50:37.231Z,2.93
2017-04-29T12:53:03.888Z,3.20
2017-04-29T12:55:30.547Z,2.78
2017-04-29T12:57:57.206Z,2.60
2017-04-29T13:00:23.866Z,2.72
2017-04-29T13:02:50.526Z,2.72
2017-04-29T13:05:17.191Z,3.45
2017-04-29T13:07:43.847Z,2.83
2017-04-29T13:10:10.528Z,3.22
2017-04-29T13:12:37.188Z,3.10
2017-04-29T13:15:03.871Z,3.35
2017-04-29T13:17:30.537Z,3.02
2017-04-29T13:19:57.205Z,3.28
2017-04-29T13:22:23.864Z,3.58
2017-04-29T13:24:50.523Z,3.08
2017-04-29T13:27:17.178Z,3.28
2017-04-29T13:29:43.863Z,3.07
2017-04-29T13:32:10.546Z,3.00
2017-04-29T13:34:37.235Z,2.92
2017-04-29T13:37:03.956Z,2.90
2017-04-29T13:39:30.613Z,2.87
2017-04-29T13:41:57.278Z,3.42
2017-04-29T13:44:23.940Z,3.33
2017-04-29T13:46:50.606Z,3.15
2017-04-29T13:49:17.263Z,3.08
2017-04-29T13:51:43.930Z,3.33
2017-04-29T13:54:10.614Z,3.03
2017-04-29T13:56:37.274Z,2.98
2017-04-29T13:59:03.928Z,3.10
2017-04-29T14:01:30.591Z,3.15
2017-04-29T14:03:57.248Z,2.80
2017-04-29T14:06:23.904Z,2.93
2017-04-29T14:08:50.562Z,3.25
2017-04-29T14:11:17.563Z,3.77
2017-04-29T14:13:44.222Z,3.13
2017-04-29T14:16:10.887Z,3.80
2017-04-29T14:18:37.542Z,3.50
2017-04-29T14:21:04.203Z,3.33
2017-04-29T14:23:30.856Z,4.20
2017-04-29T14:25:57.511Z,4.82
2017-04-29T14:28:24.195Z,4.12
2017-04-29T14:30:50.856Z,4.50
2017-04-29T14:33:17.518Z,4.28
2017-04-29T14:35:44.199Z,3.42
2017-04-29T14:38:10.868Z,3.62
2017-04-29T14:40:37.553Z,3.28
2017-04-29T14:43:04.211Z,3.10
2017-04-29T14:45:30.892Z,4.97
2017-04-29T14:47:57.554Z,5.60
2017-04-29T14:50:24.234Z,5.32
2017-04-29T14:52:50.894Z,9.40
2017-04-29T14:55:17.591Z,7.33
2017-04-29T14:57:44.248Z,4.28
2017-04-29T15:00:10.915Z,3.62
2017-04-29T15:02:37.578Z,2.72
2017-04-29T15:05:04.234Z,3.60
2017-04-29T15:07:30.898Z,3.88
2017-04-29T15:09:57.563Z,3.47
2017-04-29T15:12:24.223Z,3.82
2017-04-29T15:14:50.890Z,3.90
2017-04-29T15:17:17.553Z,3.82
2017-04-29T15:19:44.214Z,3.35
2017-04-29T15:22:10.898Z,4.87
2017-04-29T15:24:37.575Z,7.67
2017-04-29T15:27:04.230Z,3.42
2017-04-29T15:29:30.888Z,3.93
2017-04-29T15:31:57.547Z,2.98
2017-04-29T15:34:24.207Z,3.68
2017-04-29T15:36:50.866Z,3.35
2017-04-29T15:39:17.526Z,3.55
2017-04-29T15:41:44.189Z,4.40
2017-04-29T15:44:10.855Z,6.88
2017-04-29T15:46:37.519Z,3.55
2017-04-29T15:49:04.188Z,3.62
2017-04-29T15:51:30.858Z,3.00
2017-04-29T15:53:57.514Z,3.32
2017-04-29T15:56:24.174Z,3.27
2017-04-29T15:58:50.836Z,2.90
2017-04-29T16:01:17.500Z,3.27
2017-04-29T16:03:44.156Z,3.03
2017-04-29T16:06:10.822Z,2.97
2017-04-29T16:08:37.486Z,3.23
2017-04-29T16:11:04.156Z,3.18
2017-04-29T16:13:30.811Z,3.97
2017-04-29T16:15:57.467Z,3.07
2017-04-29T16:18:24.134Z,3.27
2017-04-29T16:20:50.790Z,3.62
2017-04-29T16:23:17.451Z,3.27
2017-04-29T16:25:44.120Z,3.53
2017-04-29T16:28:10.827Z,4.83
2017-04-29T16:30:37.496Z,2.93
2017-04-29T16:33:04.162Z,5.07
2017-04-29T16:35:30.826Z,3.58
2017-04-29T16:37:57.506Z,3.72
2017-04-29T16:40:24.164Z,4.00
2017-04-29T16:42:50.827Z,9.33
2017-04-29T16:45:17.491Z,6.33
2017-04-29T16:47:44.151Z,4.68
2017-04-29T16:50:10.802Z,4.85
2017-04-29T16:52:37.458Z,3.10
2017-04-29T16:55:04.114Z,4.42
2017-04-29T16:57:30.781Z,3.17
2017-04-29T16:59:57.448Z,3.68
2017-04-29T17:02:24.110Z,3.62
2017-04-29T17:04:50.782Z,4.87
2017-04-29T17:07:17.453Z,3.92
2017-04-29T17:09:44.107Z,2.92
2017-04-29T17:12:10.776Z,3.80
2017-04-29T17:14:37.468Z,3.53
2017-04-29T17:17:04.132Z,3.67
2017-04-29T17:19:30.797Z,3.10
2017-04-29T17:21:57.455Z,4.28
2017-04-29T17:24:24.111Z,3.28
2017-04-29T17:26:50.765Z,3.15
2017-04-29T17:29:17.418Z,3.40
2017-04-29T17:31:44.077Z,3.30
2017-04-29T17:34:10.739Z,3.93
2017-04-29T17:36:37.409Z,3.62
2017-04-29T17:39:04.071Z,3.38
2017-04-29T17:41:30.763Z,3.55
2017-04-29T17:43:57.426Z,3.50
2017-04-29T17:46:24.125Z,3.10
2017-04-29T17:48:50.786Z,3.57
2017-04-29T17:51:17.442Z,3.53
2017-04-29T17:53:44.108Z,3.73
2017-04-29T17:56:10.763Z,3.30
2017-04-29T17:58:37.418Z,3.48
2017-04-29T18:01:04.075Z,3.43
2017-04-29T18:03:30.735Z,3.85
2017-04-29T18:05:57.396Z,3.73
2017-04-29T18:08:24.077Z,3.68
2017-04-29T18:10:50.743Z,4.00
2017-04-29T18:13:17.439Z,3.72
2017-04-29T18:15:44.103Z,3.52
2017-04-29T18:18:10.755Z,3.58
2017-04-29T18:20:37.425Z,3.60
2017-04-29T18:23:04.092Z,4.33
2017-04-29T18:25:30.756Z,3.40
2017-04-29T18:27:57.419Z,3.65
2017-04-29T18:30:24.103Z,3.93
2017-04-29T18:32:50.771Z,3.95
2017-04-29T18:35:17.436Z,4.02
2017-04-29T18:37:44.095Z,4.45
2017-04-29T18:40:10.756Z,5.20
2017-04-29T18:42:37.414Z,4.85
2017-04-29T18:45:04.071Z,6.33
2017-04-29T18:47:30.735Z,5.87
2017-04-29T18:49:57.399Z,7.38
2017-04-29T18:52:24.059Z,5.88
2017-04-29T18:54:50.720Z,6.03
2017-04-29T18:57:17.379Z,4.98
2017-04-29T18:59:44.034Z,4.05
2017-04-29T19:02:10.697Z,5.07
2017-04-29T19:04:37.359Z,4.42
2017-04-29T19:07:04.025Z,5.58
2017-04-29T19:09:30.696Z,4.95
2017-04-29T19:11:57.354Z,5.37
2017-04-29T19:14:24.011Z,4.95
2017-04-29T19:16:50.716Z,5.25
2017-04-29T19:19:17.375Z,4.90
2017-04-29T19:21:44.038Z,5.33
2017-04-29T19:24:10.695Z,5.05
2017-04-29T19:26:37.366Z,5.45
2017-04-29T19:29:04.040Z,4.72
2017-04-29T19:31:30.719Z,5.68
2017-04-29T19:33:57.408Z,7.73
2017-04-29T19:36:24.083Z,8.23
2017-04-29T19:38:50.749Z,7.95
2017-04-29T19:41:17.468Z,8.32
2017-04-29T19:43:44.135Z,9.77
2017-04-29T19:46:10.806Z,11.95
2017-04-29T19:48:37.486Z,11.17
2017-04-29T19:51:04.187Z,11.90
2017-04-29T19:53:31.120Z,12.38
2017-04-29T19:55:57.792Z,11.00
2017-04-29T19:58:24.457Z,10.50
2017-04-29T20:00:51.158Z,13.47
2017-04-29T20:03:17.824Z,13.82
2017-04-29T20:05:44.494Z,19.05
2017-04-29T20:08:11.179Z,18.37
2017-04-29T20:10:37.842Z,15.68
2017-04-29T20:13:04.519Z,13.32
2017-04-29T20:15:31.185Z,15.17
2017-04-29T20:17:57.859Z,13.30
2017-04-29T20:20:24.524Z,13.75
2017-04-29T20:22:51.196Z,12.98
2017-04-29T20:25:17.877Z,13.62
2017-04-29T20:27:44.534Z,9.90
2017-04-29T20:30:11.215Z,11.75
2017-04-29T20:32:37.884Z,11.50
2017-04-29T20:35:04.547Z,6.93
2017-04-29T20:37:31.211Z,6.87
2017-04-29T20:39:57.875Z,7.12
2017-04-29T20:42:24.543Z,7.95
2017-04-29T20:44:51.215Z,8.55
2017-04-29T20:47:17.903Z,8.77
2017-04-29T20:49:44.565Z,8.95
2017-04-29T20:52:11.228Z,9.82
2017-04-29T20:54:37.882Z,8.42
2017-04-29T20:57:04.551Z,8.95
2017-04-29T20:59:31.219Z,9.22
2017-04-29T21:01:57.883Z,9.52
2017-04-29T21:04:24.559Z,12.50
2017-04-29T21:06:51.375Z,15.82
2017-04-29T21:09:18.053Z,14.32
2017-04-29T21:11:44.739Z,13.37
2017-04-29T21:14:11.551Z,14.50
2017-04-29T21:16:38.230Z,12.42
2017-04-29T21:19:04.906Z,10.97
2017-04-29T21:21:31.609Z,12.90
2017-04-29T21:23:58.287Z,9.98
2017-04-29T21:26:24.959Z,9.22
2017-04-29T21:28:51.630Z,13.98
2017-04-29T21:31:18.381Z,17.40
2017-04-29T21:33:45.089Z,14.67
2017-04-29T21:36:11.758Z,15.60
2017-04-29T21:38:38.423Z,15.43
2017-04-29T21:41:05.090Z,13.33
2017-04-29T21:43:31.916Z,12.18
2017-04-29T21:45:58.598Z,12.32
2017-04-29T21:48:25.259Z,15.85
2017-04-29T21:50:51.933Z,13.72
2017-04-29T21:53:18.603Z,12.92
2017-04-29T21:55:45.275Z,11.80
2017-04-29T21:58:11.944Z,11.60
2017-04-29T22:00:38.610Z,10.73
2017-04-29T22:03:05.279Z,11.72
2017-04-29T22:05:31.946Z,13.03
2017-04-29T22:07:58.615Z,8.27
2017-04-29T22:10:25.283Z,9.05
2017-04-29T22:12:51.964Z,8.28
2017-04-29T22:15:18.623Z,7.35
2017-04-29T22:17:45.288Z,8.25
2017-04-29T22:20:11.952Z,7.03
2017-04-29T22:22:38.620Z,7.15
2017-04-29T22:25:05.282Z,5.88
2017-04-29T22:27:31.966Z,6.87
2017-04-29T22:29:58.627Z,6.23
2017-04-29T22:32:25.352Z,6.32
2017-04-29T22:34:52.026Z,7.30
2017-04-29T22:37:18.731Z,7.43
2017-04-29T22:39:45.386Z,7.05
2017-04-29T22:42:12.047Z,5.63
2017-04-29T22:44:38.737Z,6.45
2017-04-29T22:47:05.407Z,7.65
2017-04-29T22:49:32.075Z,8.80
2017-04-29T22:51:58.735Z,6.92
2017-04-29T22:54:25.403Z,5.80
2017-04-29T22:56:52.066Z,8.03
2017-04-29T22:59:18.740Z,8.33
2017-04-29T23:01:45.488Z,7.00
2017-04-29T23:04:12.145Z,7.03
2017-04-29T23:06:38.811Z,6.82
2017-04-29T23:09:05.476Z,7.15
2017-04-29T23:11:32.139Z,7.92
2017-04-29T23:13:58.812Z,8.38
2017-04-29T23:16:25.496Z,10.15
2017-04-29T23:18:52.171Z,10.47
2017-04-29T23:21:18.839Z,8.92
2017-04-29T23:23:45.505Z,9.88
2017-04-29T23:26:12.168Z,9.82
2017-04-29T23:28:38.831Z,9.70
2017-04-29T23:31:05.508Z,11.53
2017-04-29T23:33:32.180Z,12.08
2017-04-29T23:35:58.855Z,12.53
2017-04-29T23:38:25.522Z,7.70
2017-04-29T23:40:52.182Z,9.02
2017-04-29T23:43:18.851Z,7.90
2017-04-29T23:45:45.522Z,8.85
2017-04-29T23:48:12.229Z,8.17
2017-04-29T23:50:38.895Z,7.78
2017-04-29T23:53:05.554Z,6.78
2017-04-29T23:55:32.216Z,7.48
2017-04-29T23:57:58.887Z,9.67
